Latest Weather Observations for Noonamah

IDD60901

Issued at 6:21 pm CST Wednesday 19 September 2018 (issued every 10 minutes, with the page automatically refreshed every 10 minutes)

About weather observations | Map of Darwin area stations | Latest observations for Darwin area | Other Formats
Station Details ID: 014314 Name: NOONAMAH AIRSTRIP Lat: -12.61 Lon: 131.05 Height: 17.5 m
Data from the previous 72 hours. | See also: Recent months at Noonamah
Date/Time
CST
Temp
°C
App
Temp
°C
Dew
Point
°C
Rel
Hum
%
Delta-T
°C
Wind Press
QNH
hPa
Press
MSL
hPa
Rain since
9am
mm
Dir  Spd
km/h
Gust
km/h
Spd
kts
Gust
kts
19/06:00pm 30.6 32.8 21.1 57 6.4 WNW 11 22 6 12 1008.2 1008.0 0.0
19/05:30pm 31.5 32.9 21.1 54 7.0 NW 15 22 8 12 1007.7 1007.5 0.0
19/05:00pm 32.5 34.1 20.7 49 7.9 NNW 13 24 7 13 1007.4 1007.2 0.0
19/04:30pm 32.6 32.9 20.5 49 8.1 NW 19 28 10 15 1007.2 1007.0 0.0
19/04:00pm 33.5 34.7 20.6 46 8.6 NW 15 26 8 14 1007.1 1006.9 0.0
19/03:30pm 34.3 34.6 18.8 40 10.2 N 15 26 8 14 1007.4 1007.2 0.0
19/03:00pm 36.6 34.1 6.7 16 16.6 E 9 15 5 8 1007.6 1007.4 0.0
19/02:30pm 36.5 34.6 9.2 19 15.7 SE 9 24 5 13 1008.0 1007.8 0.0
19/02:00pm 36.3 34.6 9.8 20 15.4 ESE 9 24 5 13 1008.6 1008.4 0.0
19/01:30pm 35.1 32.7 8.8 20 15.0 NE 11 20 6 11 1009.3 1009.1 0.0
19/01:00pm 34.7 34.1 10.5 23 14.1 SSE 4 9 2 5 1009.9 1009.7 0.0
19/12:30pm 35.9 34.3 10.2 21 15.0 SE 9 19 5 10 1010.5 1010.3 0.0
19/12:00pm 33.5 33.6 14.0 30 11.9 SE 6 15 3 8 1011.2 1011.0 0.0
19/11:30am 32.6 33.6 16.4 37 10.2 SW 6 19 3 10 1012.0 1011.8 0.0
19/11:00am 31.8 33.9 18.0 43 8.9 NNW 4 9 2 5 1012.7 1012.6 0.0
19/10:30am 31.1 33.1 18.8 48 8.0 SW 6 11 3 6 1013.2 1013.1 0.0
19/10:00am 30.0 32.4 19.7 54 6.7 SSW 6 9 3 5 1013.4 1013.3 0.0
19/09:30am 29.1 32.5 21.6 64 5.0 SW 6 13 3 7 1013.4 1013.3 0.0
19/09:00am 27.4 31.6 22.4 74 3.4 SW 4 7 2 4 1013.3 1013.2 0.0
19/08:30am 26.1 30.6 22.2 79 2.6 SSW 2 4 1 2 1013.0 1012.9 0.0
19/08:00am 24.3 28.4 21.6 85 1.8 SW 2 6 1 3 1012.5 1012.4 0.0
19/07:30am 21.8 25.3 19.5 87 1.5 CALM 0 0 0 0 1011.9 1011.7 0.0
19/07:00am 20.3 23.2 18.1 87 1.4 CALM 0 0 0 0 1011.8 1011.6 0.0
19/06:30am 20.2 23.0 18.0 87 1.4 CALM 0 0 0 0 1011.4 1011.2 0.0
19/06:00am 20.8 23.9 18.6 87 1.4 CALM 0 0 0 0 1011.1 1010.9 0.0
19/05:30am 20.8 24.0 18.9 89 1.2 CALM 0 2 0 1 1010.5 1010.3 0.0
19/05:00am 21.0 24.2 18.9 88 1.3 CALM 0 0 0 0 1010.3 1010.1 0.0
19/04:30am 20.9 23.8 18.1 84 1.7 CALM 0 0 0 0 1010.2 1010.0 0.0
19/04:00am 21.2 24.1 18.2 83 1.9 CALM 0 0 0 0 1010.2 1010.0 0.0
19/03:30am 21.6 24.6 18.4 82 2.0 CALM 0 0 0 0 1010.6 1010.4 0.0
19/03:00am 22.1 25.2 18.7 81 2.1 CALM 0 0 0 0 1010.9 1010.7 0.0
19/02:30am 22.1 25.1 18.5 80 2.3 CALM 0 0 0 0 1011.2 1011.0 0.0
19/02:00am 22.6 25.9 19.0 80 2.3 CALM 0 0 0 0 1011.4 1011.2 0.0
19/01:30am 23.0 26.3 19.0 78 2.5 CALM 0 0 0 0 1011.8 1011.6 0.0
19/01:00am 23.9 27.4 19.6 77 2.8 CALM 0 0 0 0 1012.1 1011.9 0.0
19/12:30am 24.2 27.5 19.1 73 3.3 CALM 0 0 0 0 1012.3 1012.2 0.0
19/12:00am 24.5 28.1 19.8 75 3.0 CALM 0 0 0 0 1012.5 1012.4 0.0
 
Date/Time
CST
Temp
°C
App
Temp
°C
Dew
Point
°C
Rel
Hum
%
Delta-T
°C
Wind Press
QNH
hPa
Press
MSL
hPa
Rain since
9am
mm
Dir  Spd
km/h
Gust
km/h
Spd
kts
Gust
kts
18/11:30pm 25.1 28.9 20.1 74 3.2 CALM 0 0 0 0 1012.6 1012.5 0.0
18/11:00pm 24.6 27.6 19.2 72 3.5 N 2 4 1 2 1012.4 1012.3 0.0
18/10:30pm 25.7 29.3 19.8 70 3.8 CALM 0 0 0 0 1012.1 1011.9 0.0
18/10:00pm 25.5 28.8 19.2 68 4.0 CALM 0 0 0 0 1012.1 1011.9 0.0
18/09:30pm 27.2 30.8 20.5 67 4.4 SSW 2 7 1 4 1011.7 1011.5 0.0
18/09:00pm 27.5 30.9 20.1 64 4.8 SW 2 4 1 2 1011.4 1011.2 0.0
18/08:30pm 28.0 30.7 19.5 60 5.5 WSW 4 6 2 3 1010.9 1010.7 0.0
18/08:00pm 28.6 30.7 19.0 56 6.2 W 6 9 3 5 1010.5 1010.3 0.0
18/07:30pm 29.3 31.0 18.4 51 7.0 W 7 15 4 8 1009.9 1009.7 0.0
18/07:00pm 29.9 30.8 18.3 49 7.4 W 11 19 6 10 1009.4 1009.2 0.0
18/06:30pm 30.9 30.1 14.1 36 10.2 WNW 11 20 6 11 1008.8 1008.6 0.0
18/06:00pm 32.0 30.3 12.3 30 11.7 W 13 20 7 11 1008.4 1008.2 0.0
18/05:30pm 33.0 31.3 13.6 31 11.8 WNW 15 22 8 12 1007.8 1007.6 0.0
18/05:00pm 33.3 31.3 13.9 31 11.8 WNW 17 24 9 13 1007.7 1007.5 0.0
18/04:30pm 37.1 36.3 15.0 27 13.9 S 13 28 7 15 1007.3 1007.1 0.0
18/04:00pm 37.9 35.0 2.4 11 18.5 SE 7 11 4 6 1007.4 1007.2 0.0
18/03:30pm 37.8 33.9 3.5 12 18.2 ESE 13 24 7 13 1007.7 1007.5 0.0
18/03:00pm 37.4 33.8 3.2 12 18.1 ESE 11 24 6 13 1008.3 1008.1 0.0
18/02:30pm 37.8 34.3 3.5 12 18.2 SSE 11 24 6 13 1008.8 1008.6 0.0
18/02:00pm 37.6 33.5 2.1 11 18.4 SE 13 24 7 13 1009.3 1009.1 0.0
18/01:30pm 36.6 33.7 6.7 16 16.6 NE 11 24 6 13 1009.8 1009.6 0.0
18/01:00pm 35.8 33.8 8.6 19 15.5 E 9 22 5 12 1010.5 1010.3 0.0
18/12:30pm 35.6 32.8 8.4 19 15.4 E 13 24 7 13 1011.1 1010.9 0.0
18/12:00pm 35.1 32.9 9.5 21 14.7 NE 11 26 6 14 1011.8 1011.6 0.0
18/11:30am 34.1 33.0 11.9 26 13.2 NE 9 19 5 10 1012.7 1012.6 0.0
18/11:00am 33.1 32.0 14.2 32 11.6 ENE 13 22 7 12 1013.2 1013.1 0.0
18/10:30am 31.5 31.1 16.3 40 9.5 NE 13 22 7 12 1013.8 1013.7 0.0
18/10:00am 31.1 32.7 17.8 45 8.5 ENE 6 15 3 8 1014.0 1013.9 0.0
18/09:30am 29.4 31.4 18.8 53 6.8 NE 6 11 3 6 1014.2 1014.1 0.0
18/09:00am 28.6 32.4 20.9 63 5.1 NNE 2 7 1 4 1014.2 1014.1 0.2
18/08:30am 26.8 30.8 22.0 75 3.2 E 4 6 2 3 1014.0 1013.9 0.2
18/08:00am 24.1 28.3 21.0 83 2.0 CALM 0 2 0 1 1013.8 1013.7 0.2
18/07:30am 22.0 25.6 19.7 87 1.5 CALM 0 0 0 0 1013.6 1013.5 0.2
18/07:00am 20.5 23.4 18.3 87 1.4 CALM 0 0 0 0 1013.2 1013.1 0.2
18/06:30am 20.4 23.1 17.8 85 1.6 CALM 0 0 0 0 1012.8 1012.7 0.2
18/06:00am 20.9 23.9 18.5 86 1.5 CALM 0 0 0 0 1012.4 1012.3 0.2
18/05:30am 20.9 23.7 17.9 83 1.9 CALM 0 0 0 0 1012.1 1011.9 0.2
18/05:00am 21.1 24.0 18.1 83 1.9 CALM 0 0 0 0 1011.7 1011.5 0.2
18/04:30am 21.3 24.1 17.9 81 2.1 CALM 0 0 0 0 1011.5 1011.3 0.2
18/04:00am 21.8 24.8 18.4 81 2.1 CALM 0 0 0 0 1011.5 1011.3 0.2
18/03:30am 21.7 24.4 17.7 78 2.5 CALM 0 0 0 0 1011.5 1011.3 0.2
18/03:00am 22.2 25.0 18.0 77 2.6 CALM 0 0 0 0 1011.7 1011.5 0.2
18/02:30am 22.6 25.7 18.6 78 2.5 CALM 0 0 0 0 1012.0 1011.8 0.2
18/02:00am 22.7 25.9 18.9 79 2.4 CALM 0 0 0 0 1012.1 1011.9 0.2
18/01:30am 23.2 26.5 19.2 78 2.5 CALM 0 0 0 0 1012.5 1012.4 0.2
18/01:00am 23.4 26.8 19.3 78 2.6 CALM 0 0 0 0 1012.6 1012.5 0.2
18/12:30am 23.5 26.7 18.8 75 3.0 CALM 0 0 0 0 1012.8 1012.7 0.2
18/12:00am 23.9 27.4 19.6 77 2.8 CALM 0 4 0 2 1012.9 1012.8 0.2
 
Date/Time
CST
Temp
°C
App
Temp
°C
Dew
Point
°C
Rel
Hum
%
Delta-T
°C
Wind Press
QNH
hPa
Press
MSL
hPa
Rain since
9am
mm
Dir  Spd
km/h
Gust
km/h
Spd
kts
Gust
kts
17/11:30pm 23.3 26.0 18.6 75 3.0 W 2 9 1 5 1012.9 1012.8 0.2
17/11:00pm 24.2 27.3 18.6 71 3.5 CALM 0 0 0 0 1012.6 1012.5 0.2
17/10:30pm 24.5 27.6 18.7 70 3.7 CALM 0 0 0 0 1012.3 1012.2 0.2
17/10:00pm 24.8 27.6 18.0 66 4.3 CALM 0 0 0 0 1012.3 1012.2 0.2
17/09:30pm 25.6 28.4 18.0 63 4.8 CALM 0 0 0 0 1012.2 1012.0 0.2
17/09:00pm 27.1 30.2 18.7 60 5.4 CALM 0 0 0 0 1011.6 1011.4 0.2
17/08:30pm 27.9 31.1 18.9 58 5.8 CALM 0 4 0 2 1011.4 1011.2 0.2
17/08:00pm 28.4 31.0 19.3 57 5.9 WNW 4 6 2 3 1011.1 1010.9 0.2
17/07:30pm 28.7 31.0 19.9 59 5.8 W 7 13 4 7 1010.4 1010.2 0.2
17/07:00pm 29.9 32.3 19.6 54 6.7 WSW 6 11 3 6 1009.8 1009.6 0.2
17/06:30pm 32.1 32.9 14.7 35 10.7 NNW 4 6 2 3 1009.1 1008.9 0.2
17/06:00pm 32.9 32.8 15.0 34 11.1 NNW 9 15 5 8 1008.6 1008.4 0.2
17/05:30pm 33.3 33.4 16.6 36 10.6 NNW 11 19 6 10 1008.3 1008.1 0.2
17/05:00pm 33.5 33.5 17.2 37 10.4 NNW 13 24 7 13 1008.0 1007.8 0.2
17/04:30pm 37.1 33.7 1.8 11 18.2 NE 9 22 5 12 1007.9 1007.7 0.2
17/04:00pm 37.4 34.0 2.0 11 18.3 NE 9 19 5 10 1008.0 1007.8 0.2
17/03:30pm 37.6 33.1 2.1 11 18.5 E 15 24 8 13 1008.2 1008.0 0.2
17/03:00pm 37.6 33.9 4.5 13 17.9 SE 13 22 7 12 1008.6 1008.4 0.2
17/02:30pm 36.9 33.7 7.0 16 16.7 E 13 20 7 11 1009.0 1008.8 0.2
17/02:00pm 36.9 34.7 9.5 19 15.9 SE 11 20 6 11 1009.6 1009.4 0.2
17/01:30pm 36.4 32.6 9.1 19 15.7 SE 19 32 10 17 1010.3 1010.1 0.2
17/01:00pm 35.8 32.1 9.3 20 15.2 E 19 32 10 17 1010.8 1010.6 0.2
17/12:30pm 35.8 32.3 8.6 19 15.5 ESE 17 30 9 16 1011.3 1011.1 0.2
17/12:00pm 35.3 32.4 11.0 23 14.3 ESE 17 30 9 16 1012.0 1011.8 0.2
17/11:30am 33.1 32.4 14.2 32 11.6 SE 11 20 6 11 1012.6 1012.5 0.2
17/11:00am 32.3 31.6 15.3 35 10.5 E 13 22 7 12 1013.2 1013.1 0.2
17/10:30am 31.0 32.0 17.7 45 8.5 SE 9 22 5 12 1013.6 1013.5 0.2
17/10:00am 30.3 32.0 19.3 51 7.2 SE 9 15 5 8 1013.7 1013.6 0.2
17/09:30am 29.0 31.3 19.9 58 6.0 ESE 7 13 4 7 1013.6 1013.5 0.2
17/09:00am 28.4 31.7 21.4 66 4.7 SE 6 9 3 5 1013.5 1013.4 0.2
17/08:30am 26.7 30.8 22.3 77 3.0 ESE 4 6 2 3 1013.5 1013.4 0.2
17/08:00am 24.9 29.4 22.2 85 1.8 ESE 2 6 1 3 1013.1 1013.0 0.2
17/07:30am 23.5 27.8 21.9 91 1.1 ESE 2 4 1 2 1012.6 1012.5 0.2
17/07:00am 22.5 26.9 21.3 93 0.8 CALM 0 0 0 0 1012.3 1012.2 0.2
17/06:30am 22.6 26.9 21.2 92 0.9 CALM 0 0 0 0 1011.8 1011.6 0.2
17/06:00am 23.0 26.8 21.6 92 0.9 SSE 4 4 2 2 1011.4 1011.2 0.2
17/05:30am 23.3 27.2 21.9 92 0.9 SSE 4 4 2 2 1011.2 1011.0 0.2
17/05:00am 23.3 28.0 21.9 92 0.9 CALM 0 0 0 0 1011.1 1010.9 0.2
17/04:30am 23.4 28.0 21.8 91 1.1 CALM 0 0 0 0 1010.9 1010.7 0.2
17/04:00am 23.9 28.7 22.2 90 1.1 CALM 0 0 0 0 1010.8 1010.6 0.2
17/03:30am 24.0 28.9 22.3 90 1.1 CALM 0 0 0 0 1010.7 1010.5 0.2
17/03:00am 24.7 29.9 22.8 89 1.3 CALM 0 0 0 0 1010.8 1010.6 0.2
17/02:30am 24.9 29.7 22.8 88 1.4 SSE 2 4 1 2 1010.9 1010.7 0.2
17/02:00am 25.4 30.7 23.1 87 1.6 CALM 0 0 0 0 1011.1 1010.9 0.2
17/01:30am 25.6 31.2 23.5 88 1.4 CALM 0 0 0 0 1011.4 1011.2 0.2
17/01:00am 26.1 31.5 23.2 84 2.0 CALM 0 0 0 0 1011.7 1011.5 0.2
17/12:30am 26.4 31.3 23.1 82 2.2 WSW 2 6 1 3 1012.0 1011.8 0.2
17/12:00am 27.2 31.4 23.2 79 2.7 ESE 6 11 3 6 1012.5 1012.4 0.0
 
Date/Time
CST
Temp
°C
App
Temp
°C
Dew
Point
°C
Rel
Hum
%
Delta-T
°C
Wind Press
QNH
hPa
Press
MSL
hPa
Rain since
9am
mm
Dir  Spd
km/h
Gust
km/h
Spd
kts
Gust
kts
16/11:30pm 27.8 31.7 21.8 70 4.0 ESE 4 7 2 4 1012.6 1012.5 0.0
16/11:00pm 27.8 32.3 21.6 69 4.1 CALM 0 0 0 0 1012.6 1012.5 0.0
16/10:30pm 28.0 31.6 21.3 67 4.5 WNW 4 6 2 3 1012.5 1012.4 0.0
16/10:00pm 28.1 31.8 21.4 67 4.5 WNW 4 7 2 4 1012.5 1012.4 0.0
16/09:30pm 28.1 31.0 21.1 65 4.7 NW 7 13 4 7 1012.3 1012.2 0.0
16/09:00pm 28.1 30.9 20.4 63 5.1 NNE 6 9 3 5 1011.9 1011.7 0.0
16/08:30pm 28.9 31.5 20.1 59 5.8 N 6 9 3 5 1011.3 1011.1 0.0
16/08:00pm 29.4 32.0 18.5 52 7.0 N 2 4 1 2 1010.8 1010.6 0.0
16/07:30pm 29.9 32.6 18.7 51 7.2 NW 2 6 1 3 1010.2 1010.0 0.0
16/07:00pm 30.5 32.4 18.9 50 7.5 NNW 7 15 4 8 1009.5 1009.3 0.0
16/06:30pm 31.6 33.0 18.6 46 8.4 NNW 9 15 5 8 1009.1 1008.9 0.0

Latest Capital City Observations: Canberra | Sydney | Melbourne | Brisbane | Adelaide | Perth | Hobart | Darwin

Other Formats:

Comma delimited format used in spreadsheet applications
http://www.bom.gov.au/fwo/IDD60901/IDD60901.94105.axf

JavaScript Object Notation format (JSON) in row-major order
http://www.bom.gov.au/fwo/IDD60901/IDD60901.94105.json